sensor_id;sensor_type;location;lat;lon;timestamp;temperature;humidity
24436;DHT22;12616;52.470;13.436;2023-12-20T00:01:59;6.70;1.00
24436;DHT22;12616;52.470;13.436;2023-12-20T00:04:26;6.70;1.00
24436;DHT22;12616;52.470;13.436;2023-12-20T00:06:52;6.70;1.00
24436;DHT22;12616;52.470;13.436;2023-12-20T00:09:19;6.70;1.00
24436;DHT22;12616;52.470;13.436;2023-12-20T00:11:46;6.70;1.00
24436;DHT22;12616;52.470;13.436;2023-12-20T00:14:14;6.60;1.00
24436;DHT22;12616;52.470;13.436;2023-12-20T00:16:41;6.60;1.00
24436;DHT22;12616;52.470;13.436;2023-12-20T00:19:10;6.70;1.00
24436;DHT22;12616;52.470;13.436;2023-12-20T00:21:37;6.70;1.00
24436;DHT22;12616;52.470;13.436;2023-12-20T00:24:05;6.70;1.00
24436;DHT22;12616;52.470;13.436;2023-12-20T00:26:35;6.70;1.00
24436;DHT22;12616;52.470;13.436;2023-12-20T00:29:02;6.70;1.00
24436;DHT22;12616;52.470;13.436;2023-12-20T00:31:30;6.70;1.00
24436;DHT22;12616;52.470;13.436;2023-12-20T00:33:57;6.70;1.00
24436;DHT22;12616;52.470;13.436;2023-12-20T00:36:24;6.70;1.00
24436;DHT22;12616;52.470;13.436;2023-12-20T00:38:51;6.70;1.00
24436;DHT22;12616;52.470;13.436;2023-12-20T00:41:18;6.70;1.00
24436;DHT22;12616;52.470;13.436;2023-12-20T00:43:45;6.70;1.00
24436;DHT22;12616;52.470;13.436;2023-12-20T00:46:12;6.70;1.00
24436;DHT22;12616;52.470;13.436;2023-12-20T00:48:47;6.70;1.00
24436;DHT22;12616;52.470;13.436;2023-12-20T00:51:14;6.70;1.00
24436;DHT22;12616;52.470;13.436;2023-12-20T00:53:42;6.70;1.00
24436;DHT22;12616;52.470;13.436;2023-12-20T00:56:08;6.70;1.00
24436;DHT22;12616;52.470;13.436;2023-12-20T00:58:35;6.70;1.00
24436;DHT22;12616;52.470;13.436;2023-12-20T01:01:03;6.70;1.00
24436;DHT22;12616;52.470;13.436;2023-12-20T01:03:29;6.70;1.00
24436;DHT22;12616;52.470;13.436;2023-12-20T01:05:58;6.70;1.00
24436;DHT22;12616;52.470;13.436;2023-12-20T01:08:25;6.70;1.00
24436;DHT22;12616;52.470;13.436;2023-12-20T01:10:52;6.70;1.00
24436;DHT22;12616;52.470;13.436;2023-12-20T01:13:19;6.70;1.00
24436;DHT22;12616;52.470;13.436;2023-12-20T01:15:45;6.70;1.00
24436;DHT22;12616;52.470;13.436;2023-12-20T01:18:13;6.70;1.00
24436;DHT22;12616;52.470;13.436;2023-12-20T01:20:40;6.70;1.00
24436;DHT22;12616;52.470;13.436;2023-12-20T01:23:09;6.70;1.00
24436;DHT22;12616;52.470;13.436;2023-12-20T01:25:36;6.70;1.00
24436;DHT22;12616;52.470;13.436;2023-12-20T01:28:04;6.70;1.00
24436;DHT22;12616;52.470;13.436;2023-12-20T01:30:31;6.70;1.00
24436;DHT22;12616;52.470;13.436;2023-12-20T01:32:59;6.70;1.00
24436;DHT22;12616;52.470;13.436;2023-12-20T01:35:26;6.70;1.00
24436;DHT22;12616;52.470;13.436;2023-12-20T01:37:53;6.60;1.00
24436;DHT22;12616;52.470;13.436;2023-12-20T01:40:23;6.70;1.00
24436;DHT22;12616;52.470;13.436;2023-12-20T01:42:58;6.70;1.00
24436;DHT22;12616;52.470;13.436;2023-12-20T01:45:25;6.70;1.00
24436;DHT22;12616;52.470;13.436;2023-12-20T01:47:52;6.70;1.00
24436;DHT22;12616;52.470;13.436;2023-12-20T01:50:19;6.70;1.00
24436;DHT22;12616;52.470;13.436;2023-12-20T01:52:47;6.60;1.00
24436;DHT22;12616;52.470;13.436;2023-12-20T01:55:15;6.60;1.00
24436;DHT22;12616;52.470;13.436;2023-12-20T01:57:44;6.60;1.00
24436;DHT22;12616;52.470;13.436;2023-12-20T02:00:13;6.70;1.00
24436;DHT22;12616;52.470;13.436;2023-12-20T02:02:41;6.70;1.00
24436;DHT22;12616;52.470;13.436;2023-12-20T02:05:10;6.60;1.00
24436;DHT22;12616;52.470;13.436;2023-12-20T02:07:37;6.60;1.00
24436;DHT22;12616;52.470;13.436;2023-12-20T02:10:05;6.60;1.00
24436;DHT22;12616;52.470;13.436;2023-12-20T02:12:33;6.60;1.00
24436;DHT22;12616;52.470;13.436;2023-12-20T02:15:02;6.80;1.00
24436;DHT22;12616;52.470;13.436;2023-12-20T02:17:30;6.70;1.00
24436;DHT22;12616;52.470;13.436;2023-12-20T02:19:58;6.70;1.00
24436;DHT22;12616;52.470;13.436;2023-12-20T02:22:26;6.70;1.00
24436;DHT22;12616;52.470;13.436;2023-12-20T02:24:53;6.70;1.00
24436;DHT22;12616;52.470;13.436;2023-12-20T02:27:20;6.80;1.00
24436;DHT22;12616;52.470;13.436;2023-12-20T02:29:48;6.80;1.00
24436;DHT22;12616;52.470;13.436;2023-12-20T02:32:16;6.80;1.00
24436;DHT22;12616;52.470;13.436;2023-12-20T02:34:44;6.80;1.00
24436;DHT22;12616;52.470;13.436;2023-12-20T02:37:11;6.80;1.00
24436;DHT22;12616;52.470;13.436;2023-12-20T02:39:39;6.80;1.00
24436;DHT22;12616;52.470;13.436;2023-12-20T02:42:06;6.80;1.00
24436;DHT22;12616;52.470;13.436;2023-12-20T02:44:33;6.80;1.00
24436;DHT22;12616;52.470;13.436;2023-12-20T02:47:00;6.80;1.00
24436;DHT22;12616;52.470;13.436;2023-12-20T02:49:26;6.80;1.00
24436;DHT22;12616;52.470;13.436;2023-12-20T02:51:53;6.80;1.00
24436;DHT22;12616;52.470;13.436;2023-12-20T02:54:20;6.80;1.00
24436;DHT22;12616;52.470;13.436;2023-12-20T02:56:48;6.80;1.00
24436;DHT22;12616;52.470;13.436;2023-12-20T02:59:15;6.80;1.00
24436;DHT22;12616;52.470;13.436;2023-12-20T03:01:43;6.80;1.00
24436;DHT22;12616;52.470;13.436;2023-12-20T03:04:10;6.90;1.00
24436;DHT22;12616;52.470;13.436;2023-12-20T03:06:37;6.80;1.00
24436;DHT22;12616;52.470;13.436;2023-12-20T03:09:04;6.80;1.00
24436;DHT22;12616;52.470;13.436;2023-12-20T03:11:31;6.70;1.00
24436;DHT22;12616;52.470;13.436;2023-12-20T03:14:00;6.70;1.00
24436;DHT22;12616;52.470;13.436;2023-12-20T03:16:26;6.70;1.00
24436;DHT22;12616;52.470;13.436;2023-12-20T03:18:53;6.80;1.00
24436;DHT22;12616;52.470;13.436;2023-12-20T03:21:20;6.80;1.00
24436;DHT22;12616;52.470;13.436;2023-12-20T03:23:48;6.80;1.00
24436;DHT22;12616;52.470;13.436;2023-12-20T03:26:14;6.90;1.00
24436;DHT22;12616;52.470;13.436;2023-12-20T03:28:43;6.90;1.00
24436;DHT22;12616;52.470;13.436;2023-12-20T03:31:11;6.90;1.00
24436;DHT22;12616;52.470;13.436;2023-12-20T03:33:38;6.90;1.00
24436;DHT22;12616;52.470;13.436;2023-12-20T03:36:05;6.90;1.00
24436;DHT22;12616;52.470;13.436;2023-12-20T03:38:32;6.80;1.00
24436;DHT22;12616;52.470;13.436;2023-12-20T03:40:58;6.80;1.00
24436;DHT22;12616;52.470;13.436;2023-12-20T03:43:25;6.80;1.00
24436;DHT22;12616;52.470;13.436;2023-12-20T03:45:52;6.80;1.00
24436;DHT22;12616;52.470;13.436;2023-12-20T03:48:20;6.80;1.00
24436;DHT22;12616;52.470;13.436;2023-12-20T03:50:47;6.80;1.00
24436;DHT22;12616;52.470;13.436;2023-12-20T03:53:14;6.80;1.00
24436;DHT22;12616;52.470;13.436;2023-12-20T03:55:41;6.80;1.00
24436;DHT22;12616;52.470;13.436;2023-12-20T03:58:07;6.90;1.00
24436;DHT22;12616;52.470;13.436;2023-12-20T04:00:34;6.90;1.00
24436;DHT22;12616;52.470;13.436;2023-12-20T04:03:01;6.90;1.00
24436;DHT22;12616;52.470;13.436;2023-12-20T04:05:29;6.90;1.00
24436;DHT22;12616;52.470;13.436;2023-12-20T04:07:56;6.80;1.00
24436;DHT22;12616;52.470;13.436;2023-12-20T04:10:23;6.80;99.90
24436;DHT22;12616;52.470;13.436;2023-12-20T04:12:50;6.80;99.90
24436;DHT22;12616;52.470;13.436;2023-12-20T04:15:17;6.80;99.90
24436;DHT22;12616;52.470;13.436;2023-12-20T04:17:43;6.80;99.90
24436;DHT22;12616;52.470;13.436;2023-12-20T04:20:10;6.70;99.90
24436;DHT22;12616;52.470;13.436;2023-12-20T04:22:38;6.70;99.90
24436;DHT22;12616;52.470;13.436;2023-12-20T04:25:06;6.70;99.90
24436;DHT22;12616;52.470;13.436;2023-12-20T04:27:32;6.70;99.90
24436;DHT22;12616;52.470;13.436;2023-12-20T04:29:59;6.70;99.90
24436;DHT22;12616;52.470;13.436;2023-12-20T04:32:26;6.60;99.90
24436;DHT22;12616;52.470;13.436;2023-12-20T04:34:53;6.70;99.90
24436;DHT22;12616;52.470;13.436;2023-12-20T04:37:20;6.60;99.90
24436;DHT22;12616;52.470;13.436;2023-12-20T04:39:48;6.50;99.90
24436;DHT22;12616;52.470;13.436;2023-12-20T04:42:15;6.30;99.90
24436;DHT22;12616;52.470;13.436;2023-12-20T04:44:42;6.40;99.90
24436;DHT22;12616;52.470;13.436;2023-12-20T04:47:09;6.30;99.90
24436;DHT22;12616;52.470;13.436;2023-12-20T04:49:36;6.20;99.90
24436;DHT22;12616;52.470;13.436;2023-12-20T04:52:03;6.10;99.90
24436;DHT22;12616;52.470;13.436;2023-12-20T04:54:30;6.10;99.90
24436;DHT22;12616;52.470;13.436;2023-12-20T04:56:58;6.10;99.90
24436;DHT22;12616;52.470;13.436;2023-12-20T04:59:25;6.00;99.90
24436;DHT22;12616;52.470;13.436;2023-12-20T05:01:51;6.00;99.90
24436;DHT22;12616;52.470;13.436;2023-12-20T05:04:18;6.00;99.90
24436;DHT22;12616;52.470;13.436;2023-12-20T05:06:46;6.00;99.90
24436;DHT22;12616;52.470;13.436;2023-12-20T05:09:12;5.90;99.90
24436;DHT22;12616;52.470;13.436;2023-12-20T05:11:39;5.90;99.90
24436;DHT22;12616;52.470;13.436;2023-12-20T05:14:07;6.00;99.90
24436;DHT22;12616;52.470;13.436;2023-12-20T05:16:34;6.00;99.90
24436;DHT22;12616;52.470;13.436;2023-12-20T05:19:01;6.00;99.90
24436;DHT22;12616;52.470;13.436;2023-12-20T05:21:32;5.90;99.90
24436;DHT22;12616;52.470;13.436;2023-12-20T05:23:58;5.90;99.90
24436;DHT22;12616;52.470;13.436;2023-12-20T05:26:25;6.00;99.90
24436;DHT22;12616;52.470;13.436;2023-12-20T05:28:52;6.00;99.90
24436;DHT22;12616;52.470;13.436;2023-12-20T05:31:20;6.10;99.90
24436;DHT22;12616;52.470;13.436;2023-12-20T05:33:47;6.00;99.90
24436;DHT22;12616;52.470;13.436;2023-12-20T05:36:14;6.00;99.90
24436;DHT22;12616;52.470;13.436;2023-12-20T05:38:41;5.90;99.90
24436;DHT22;12616;52.470;13.436;2023-12-20T05:41:08;5.80;99.90
24436;DHT22;12616;52.470;13.436;2023-12-20T05:43:34;5.90;99.90
24436;DHT22;12616;52.470;13.436;2023-12-20T05:46:01;5.80;99.90
24436;DHT22;12616;52.470;13.436;2023-12-20T05:48:30;5.70;99.90
24436;DHT22;12616;52.470;13.436;2023-12-20T05:50:57;5.60;99.90
24436;DHT22;12616;52.470;13.436;2023-12-20T05:53:24;5.60;99.90
24436;DHT22;12616;52.470;13.436;2023-12-20T05:55:51;5.50;99.90
24436;DHT22;12616;52.470;13.436;2023-12-20T05:58:18;5.50;99.90
24436;DHT22;12616;52.470;13.436;2023-12-20T06:00:44;5.40;99.90
24436;DHT22;12616;52.470;13.436;2023-12-20T06:03:11;5.40;99.90
24436;DHT22;12616;52.470;13.436;2023-12-20T06:05:40;5.40;99.90
24436;DHT22;12616;52.470;13.436;2023-12-20T06:08:06;5.40;99.90
24436;DHT22;12616;52.470;13.436;2023-12-20T06:10:33;5.40;99.90
24436;DHT22;12616;52.470;13.436;2023-12-20T06:13:00;5.40;99.90
24436;DHT22;12616;52.470;13.436;2023-12-20T06:15:27;5.30;99.90
24436;DHT22;12616;52.470;13.436;2023-12-20T06:17:54;5.40;99.90
24436;DHT22;12616;52.470;13.436;2023-12-20T06:20:20;5.40;99.90
24436;DHT22;12616;52.470;13.436;2023-12-20T06:22:49;5.30;99.90
24436;DHT22;12616;52.470;13.436;2023-12-20T06:25:16;5.40;99.90
24436;DHT22;12616;52.470;13.436;2023-12-20T06:27:42;5.30;99.90
24436;DHT22;12616;52.470;13.436;2023-12-20T06:30:10;5.40;99.90
24436;DHT22;12616;52.470;13.436;2023-12-20T06:32:37;5.40;99.90
24436;DHT22;12616;52.470;13.436;2023-12-20T06:35:06;5.40;99.90
24436;DHT22;12616;52.470;13.436;2023-12-20T06:37:32;5.40;99.90
24436;DHT22;12616;52.470;13.436;2023-12-20T06:40:01;5.40;89.50
24436;DHT22;12616;52.470;13.436;2023-12-20T06:42:28;5.30;93.60
24436;DHT22;12616;52.470;13.436;2023-12-20T06:44:55;5.40;99.90
24436;DHT22;12616;52.470;13.436;2023-12-20T06:47:21;5.40;98.30
24436;DHT22;12616;52.470;13.436;2023-12-20T06:49:51;5.40;99.90
24436;DHT22;12616;52.470;13.436;2023-12-20T06:52:18;5.40;86.00
24436;DHT22;12616;52.470;13.436;2023-12-20T06:54:45;5.40;90.10
24436;DHT22;12616;52.470;13.436;2023-12-20T06:57:13;5.50;99.90
24436;DHT22;12616;52.470;13.436;2023-12-20T06:59:40;5.50;99.90
24436;DHT22;12616;52.470;13.436;2023-12-20T07:02:07;5.70;99.90
24436;DHT22;12616;52.470;13.436;2023-12-20T07:04:38;5.60;17.40
24436;DHT22;12616;52.470;13.436;2023-12-20T07:07:05;5.50;13.50
24436;DHT22;12616;52.470;13.436;2023-12-20T07:09:32;5.50;9.80
24436;DHT22;12616;52.470;13.436;2023-12-20T07:11:59;5.50;28.60
24436;DHT22;12616;52.470;13.436;2023-12-20T07:14:27;5.50;19.20
24436;DHT22;12616;52.470;13.436;2023-12-20T07:16:54;5.60;23.30
24436;DHT22;12616;52.470;13.436;2023-12-20T07:19:21;5.50;1.00
24436;DHT22;12616;52.470;13.436;2023-12-20T07:21:48;5.60;1.00
24436;DHT22;12616;52.470;13.436;2023-12-20T07:24:15;5.60;1.00
24436;DHT22;12616;52.470;13.436;2023-12-20T07:26:41;5.60;1.00
24436;DHT22;12616;52.470;13.436;2023-12-20T07:29:08;5.60;1.00
24436;DHT22;12616;52.470;13.436;2023-12-20T07:31:37;5.60;1.00
24436;DHT22;12616;52.470;13.436;2023-12-20T07:34:03;5.60;1.00
24436;DHT22;12616;52.470;13.436;2023-12-20T07:36:31;5.60;1.00
24436;DHT22;12616;52.470;13.436;2023-12-20T07:38:57;5.70;1.00
24436;DHT22;12616;52.470;13.436;2023-12-20T07:41:24;5.60;1.00
24436;DHT22;12616;52.470;13.436;2023-12-20T07:43:51;5.70;1.00
24436;DHT22;12616;52.470;13.436;2023-12-20T07:46:21;5.70;1.00
24436;DHT22;12616;52.470;13.436;2023-12-20T07:48:50;5.70;1.00
24436;DHT22;12616;52.470;13.436;2023-12-20T07:51:17;5.70;1.00
24436;DHT22;12616;52.470;13.436;2023-12-20T07:53:44;5.70;1.00
24436;DHT22;12616;52.470;13.436;2023-12-20T07:56:15;5.80;1.00
24436;DHT22;12616;52.470;13.436;2023-12-20T07:58:42;5.80;1.00
24436;DHT22;12616;52.470;13.436;2023-12-20T08:01:09;5.80;1.00
24436;DHT22;12616;52.470;13.436;2023-12-20T08:03:35;5.80;1.00
24436;DHT22;12616;52.470;13.436;2023-12-20T08:06:04;5.80;1.00
24436;DHT22;12616;52.470;13.436;2023-12-20T08:08:31;5.80;1.00
24436;DHT22;12616;52.470;13.436;2023-12-20T08:10:58;5.80;1.00
24436;DHT22;12616;52.470;13.436;2023-12-20T08:13:26;5.70;1.00
24436;DHT22;12616;52.470;13.436;2023-12-20T08:15:53;5.80;1.00
24436;DHT22;12616;52.470;13.436;2023-12-20T08:18:21;5.80;1.00
24436;DHT22;12616;52.470;13.436;2023-12-20T08:20:48;5.90;1.00
24436;DHT22;12616;52.470;13.436;2023-12-20T08:23:16;5.80;1.00
24436;DHT22;12616;52.470;13.436;2023-12-20T08:25:43;5.80;1.00
24436;DHT22;12616;52.470;13.436;2023-12-20T08:28:10;5.80;1.00
24436;DHT22;12616;52.470;13.436;2023-12-20T08:30:37;5.70;1.00
24436;DHT22;12616;52.470;13.436;2023-12-20T08:33:04;5.80;1.00
24436;DHT22;12616;52.470;13.436;2023-12-20T08:35:33;5.70;1.00
24436;DHT22;12616;52.470;13.436;2023-12-20T08:37:59;5.70;1.00
24436;DHT22;12616;52.470;13.436;2023-12-20T08:40:28;5.70;1.00
24436;DHT22;12616;52.470;13.436;2023-12-20T08:42:54;5.80;99.90
24436;DHT22;12616;52.470;13.436;2023-12-20T08:45:21;5.80;1.00
24436;DHT22;12616;52.470;13.436;2023-12-20T08:47:48;5.80;99.90
24436;DHT22;12616;52.470;13.436;2023-12-20T08:50:15;5.90;99.90
24436;DHT22;12616;52.470;13.436;2023-12-20T08:52:42;5.90;99.90
24436;DHT22;12616;52.470;13.436;2023-12-20T08:55:09;6.00;1.00
24436;DHT22;12616;52.470;13.436;2023-12-20T08:57:37;6.00;99.90
24436;DHT22;12616;52.470;13.436;2023-12-20T09:00:05;6.10;99.90
24436;DHT22;12616;52.470;13.436;2023-12-20T09:02:33;6.10;99.90
24436;DHT22;12616;52.470;13.436;2023-12-20T09:05:01;6.00;99.90
24436;DHT22;12616;52.470;13.436;2023-12-20T09:07:28;6.00;99.90
24436;DHT22;12616;52.470;13.436;2023-12-20T09:09:56;6.00;99.90
24436;DHT22;12616;52.470;13.436;2023-12-20T09:12:23;6.00;99.90
24436;DHT22;12616;52.470;13.436;2023-12-20T09:14:52;6.10;99.90
24436;DHT22;12616;52.470;13.436;2023-12-20T09:17:19;6.10;99.90
24436;DHT22;12616;52.470;13.436;2023-12-20T09:19:48;6.10;99.90
24436;DHT22;12616;52.470;13.436;2023-12-20T09:22:15;6.20;99.90
24436;DHT22;12616;52.470;13.436;2023-12-20T09:24:43;6.30;99.90
24436;DHT22;12616;52.470;13.436;2023-12-20T09:27:10;6.30;99.90
24436;DHT22;12616;52.470;13.436;2023-12-20T09:29:37;6.30;99.90
24436;DHT22;12616;52.470;13.436;2023-12-20T09:32:05;6.30;99.90
24436;DHT22;12616;52.470;13.436;2023-12-20T09:34:33;6.40;99.90
24436;DHT22;12616;52.470;13.436;2023-12-20T09:37:00;6.30;99.90
24436;DHT22;12616;52.470;13.436;2023-12-20T09:39:28;6.30;99.90
24436;DHT22;12616;52.470;13.436;2023-12-20T09:42:01;6.20;99.90
24436;DHT22;12616;52.470;13.436;2023-12-20T09:44:28;6.30;99.90
24436;DHT22;12616;52.470;13.436;2023-12-20T09:46:55;6.30;99.90
24436;DHT22;12616;52.470;13.436;2023-12-20T09:49:25;6.30;99.90
24436;DHT22;12616;52.470;13.436;2023-12-20T09:51:54;6.30;99.90
24436;DHT22;12616;52.470;13.436;2023-12-20T09:54:21;6.30;99.90
24436;DHT22;12616;52.470;13.436;2023-12-20T09:56:49;6.30;99.90
24436;DHT22;12616;52.470;13.436;2023-12-20T09:59:16;6.30;99.90
24436;DHT22;12616;52.470;13.436;2023-12-20T10:01:43;6.30;99.90
24436;DHT22;12616;52.470;13.436;2023-12-20T10:04:12;6.40;99.90
24436;DHT22;12616;52.470;13.436;2023-12-20T10:06:41;6.40;99.90
24436;DHT22;12616;52.470;13.436;2023-12-20T10:09:08;6.30;99.90
24436;DHT22;12616;52.470;13.436;2023-12-20T10:11:35;6.40;99.90
24436;DHT22;12616;52.470;13.436;2023-12-20T10:14:03;6.40;99.90
24436;DHT22;12616;52.470;13.436;2023-12-20T10:16:30;6.40;99.90
24436;DHT22;12616;52.470;13.436;2023-12-20T10:18:58;6.40;57.90
24436;DHT22;12616;52.470;13.436;2023-12-20T10:21:25;6.40;31.10
24436;DHT22;12616;52.470;13.436;2023-12-20T10:23:54;6.50;11.20
24436;DHT22;12616;52.470;13.436;2023-12-20T10:26:21;6.40;22.20
24436;DHT22;12616;52.470;13.436;2023-12-20T10:28:50;6.50;56.90
24436;DHT22;12616;52.470;13.436;2023-12-20T10:31:28;6.50;1.00
24436;DHT22;12616;52.470;13.436;2023-12-20T10:34:00;6.50;1.00
24436;DHT22;12616;52.470;13.436;2023-12-20T10:36:29;6.50;1.00
24436;DHT22;12616;52.470;13.436;2023-12-20T10:38:58;6.50;1.00
24436;DHT22;12616;52.470;13.436;2023-12-20T10:41:28;6.50;1.00
24436;DHT22;12616;52.470;13.436;2023-12-20T10:43:57;6.60;1.00
24436;DHT22;12616;52.470;13.436;2023-12-20T10:46:25;6.60;1.00
24436;DHT22;12616;52.470;13.436;2023-12-20T10:48:54;6.70;1.00
24436;DHT22;12616;52.470;13.436;2023-12-20T10:51:22;6.70;1.00
24436;DHT22;12616;52.470;13.436;2023-12-20T10:53:50;6.80;1.00
24436;DHT22;12616;52.470;13.436;2023-12-20T10:56:19;6.90;1.00
24436;DHT22;12616;52.470;13.436;2023-12-20T10:58:47;6.90;1.00
24436;DHT22;12616;52.470;13.436;2023-12-20T11:01:15;6.90;1.00
24436;DHT22;12616;52.470;13.436;2023-12-20T11:03:48;6.80;1.00
24436;DHT22;12616;52.470;13.436;2023-12-20T11:06:24;6.80;1.00
24436;DHT22;12616;52.470;13.436;2023-12-20T11:09:00;6.80;99.90
24436;DHT22;12616;52.470;13.436;2023-12-20T11:11:43;6.80;99.90
24436;DHT22;12616;52.470;13.436;2023-12-20T11:14:17;6.80;1.00
24436;DHT22;12616;52.470;13.436;2023-12-20T11:16:45;6.80;1.00
24436;DHT22;12616;52.470;13.436;2023-12-20T11:19:12;6.80;1.00
24436;DHT22;12616;52.470;13.436;2023-12-20T11:21:40;6.80;1.00
24436;DHT22;12616;52.470;13.436;2023-12-20T11:24:07;6.80;1.00
24436;DHT22;12616;52.470;13.436;2023-12-20T11:26:34;6.70;1.00
24436;DHT22;12616;52.470;13.436;2023-12-20T11:29:32;6.70;1.00
24436;DHT22;12616;52.470;13.436;2023-12-20T11:32:01;6.80;1.00
24436;DHT22;12616;52.470;13.436;2023-12-20T11:34:30;6.70;1.00
24436;DHT22;12616;52.470;13.436;2023-12-20T11:36:58;6.70;1.00
24436;DHT22;12616;52.470;13.436;2023-12-20T11:39:26;6.70;1.00
24436;DHT22;12616;52.470;13.436;2023-12-20T11:41:55;6.70;55.80
24436;DHT22;12616;52.470;13.436;2023-12-20T11:44:23;6.70;50.60
24436;DHT22;12616;52.470;13.436;2023-12-20T11:46:53;6.60;51.80
24436;DHT22;12616;52.470;13.436;2023-12-20T11:49:23;6.60;1.00
24436;DHT22;12616;52.470;13.436;2023-12-20T11:51:51;6.60;1.00
24436;DHT22;12616;52.470;13.436;2023-12-20T11:54:18;6.60;1.00
24436;DHT22;12616;52.470;13.436;2023-12-20T11:56:46;6.60;1.00
24436;DHT22;12616;52.470;13.436;2023-12-20T11:59:12;6.60;1.00
24436;DHT22;12616;52.470;13.436;2023-12-20T12:01:39;6.60;1.00
24436;DHT22;12616;52.470;13.436;2023-12-20T12:04:08;6.60;1.00
24436;DHT22;12616;52.470;13.436;2023-12-20T12:06:35;6.70;1.00
24436;DHT22;12616;52.470;13.436;2023-12-20T12:09:02;6.70;70.60
24436;DHT22;12616;52.470;13.436;2023-12-20T12:11:30;6.60;23.20
24436;DHT22;12616;52.470;13.436;2023-12-20T12:13:57;6.70;93.70
24436;DHT22;12616;52.470;13.436;2023-12-20T12:16:24;6.70;6.30
24436;DHT22;12616;52.470;13.436;2023-12-20T12:18:58;6.70;1.00
24436;DHT22;12616;52.470;13.436;2023-12-20T12:21:27;6.70;1.00
24436;DHT22;12616;52.470;13.436;2023-12-20T12:23:54;6.60;1.00
24436;DHT22;12616;52.470;13.436;2023-12-20T12:26:32;6.70;1.00
24436;DHT22;12616;52.470;13.436;2023-12-20T12:28:59;6.70;1.00
24436;DHT22;12616;52.470;13.436;2023-12-20T12:31:26;6.80;1.00
24436;DHT22;12616;52.470;13.436;2023-12-20T12:33:53;6.80;1.00
24436;DHT22;12616;52.470;13.436;2023-12-20T12:36:19;6.80;1.00
24436;DHT22;12616;52.470;13.436;2023-12-20T12:38:48;6.70;1.00
24436;DHT22;12616;52.470;13.436;2023-12-20T12:41:14;6.60;53.70
24436;DHT22;12616;52.470;13.436;2023-12-20T12:43:42;6.60;99.90
24436;DHT22;12616;52.470;13.436;2023-12-20T12:46:08;6.50;99.90
24436;DHT22;12616;52.470;13.436;2023-12-20T12:48:35;6.40;99.90
24436;DHT22;12616;52.470;13.436;2023-12-20T12:51:02;6.40;99.90
24436;DHT22;12616;52.470;13.436;2023-12-20T12:53:29;6.40;99.90
24436;DHT22;12616;52.470;13.436;2023-12-20T12:55:58;6.40;99.90
24436;DHT22;12616;52.470;13.436;2023-12-20T12:58:24;6.30;99.90
24436;DHT22;12616;52.470;13.436;2023-12-20T13:00:51;6.30;1.00
24436;DHT22;12616;52.470;13.436;2023-12-20T13:03:19;6.30;1.00
24436;DHT22;12616;52.470;13.436;2023-12-20T13:05:46;6.30;1.00
24436;DHT22;12616;52.470;13.436;2023-12-20T13:08:13;6.30;1.00
24436;DHT22;12616;52.470;13.436;2023-12-20T13:10:40;6.20;1.00
24436;DHT22;12616;52.470;13.436;2023-12-20T13:13:08;6.20;1.00
24436;DHT22;12616;52.470;13.436;2023-12-20T13:15:35;6.20;1.00
24436;DHT22;12616;52.470;13.436;2023-12-20T13:18:02;6.20;1.00
24436;DHT22;12616;52.470;13.436;2023-12-20T13:20:30;6.20;1.00
24436;DHT22;12616;52.470;13.436;2023-12-20T13:22:57;6.20;1.00
24436;DHT22;12616;52.470;13.436;2023-12-20T13:25:24;6.20;1.00
24436;DHT22;12616;52.470;13.436;2023-12-20T13:27:50;6.10;1.00
24436;DHT22;12616;52.470;13.436;2023-12-20T13:30:19;6.20;1.00
24436;DHT22;12616;52.470;13.436;2023-12-20T13:32:45;6.10;1.00
24436;DHT22;12616;52.470;13.436;2023-12-20T13:35:13;6.20;1.00
24436;DHT22;12616;52.470;13.436;2023-12-20T13:37:39;6.10;26.90
24436;DHT22;12616;52.470;13.436;2023-12-20T13:40:07;5.90;17.10
24436;DHT22;12616;52.470;13.436;2023-12-20T13:42:34;5.70;1.00
24436;DHT22;12616;52.470;13.436;2023-12-20T13:45:01;5.60;1.00
24436;DHT22;12616;52.470;13.436;2023-12-20T13:47:31;5.50;1.00
24436;DHT22;12616;52.470;13.436;2023-12-20T13:49:58;5.40;1.00
24436;DHT22;12616;52.470;13.436;2023-12-20T13:52:25;5.40;1.00
24436;DHT22;12616;52.470;13.436;2023-12-20T13:54:52;5.40;99.90
24436;DHT22;12616;52.470;13.436;2023-12-20T13:57:19;5.40;1.00
24436;DHT22;12616;52.470;13.436;2023-12-20T13:59:46;5.40;1.00
24436;DHT22;12616;52.470;13.436;2023-12-20T14:02:12;5.40;99.90
24436;DHT22;12616;52.470;13.436;2023-12-20T14:04:41;5.40;99.90
24436;DHT22;12616;52.470;13.436;2023-12-20T14:07:08;5.40;99.90
24436;DHT22;12616;52.470;13.436;2023-12-20T14:09:35;5.40;1.00
24436;DHT22;12616;52.470;13.436;2023-12-20T14:12:02;5.30;99.90
24436;DHT22;12616;52.470;13.436;2023-12-20T14:14:29;5.30;99.90
24436;DHT22;12616;52.470;13.436;2023-12-20T14:16:56;5.30;99.90
24436;DHT22;12616;52.470;13.436;2023-12-20T14:19:23;5.30;99.90
24436;DHT22;12616;52.470;13.436;2023-12-20T14:21:51;5.30;99.90
24436;DHT22;12616;52.470;13.436;2023-12-20T14:24:18;5.20;99.90
24436;DHT22;12616;52.470;13.436;2023-12-20T14:26:45;5.20;99.90
24436;DHT22;12616;52.470;13.436;2023-12-20T14:29:11;5.20;99.90
24436;DHT22;12616;52.470;13.436;2023-12-20T14:31:38;5.20;99.90
24436;DHT22;12616;52.470;13.436;2023-12-20T14:34:06;5.10;99.90
24436;DHT22;12616;52.470;13.436;2023-12-20T14:36:34;5.10;99.90
24436;DHT22;12616;52.470;13.436;2023-12-20T14:39:02;5.10;99.90
24436;DHT22;12616;52.470;13.436;2023-12-20T14:41:29;5.20;99.90
24436;DHT22;12616;52.470;13.436;2023-12-20T14:43:56;5.20;99.90
24436;DHT22;12616;52.470;13.436;2023-12-20T14:46:25;5.20;99.90
24436;DHT22;12616;52.470;13.436;2023-12-20T14:48:52;5.20;99.90
24436;DHT22;12616;52.470;13.436;2023-12-20T14:51:19;5.40;99.90
24436;DHT22;12616;52.470;13.436;2023-12-20T14:53:46;5.40;99.90
24436;DHT22;12616;52.470;13.436;2023-12-20T14:56:14;5.40;99.90
24436;DHT22;12616;52.470;13.436;2023-12-20T14:58:41;5.40;99.90
24436;DHT22;12616;52.470;13.436;2023-12-20T15:01:08;5.40;99.90
24436;DHT22;12616;52.470;13.436;2023-12-20T15:03:35;5.40;99.90
24436;DHT22;12616;52.470;13.436;2023-12-20T15:06:02;5.30;99.90
24436;DHT22;12616;52.470;13.436;2023-12-20T15:08:29;5.30;99.90
24436;DHT22;12616;52.470;13.436;2023-12-20T15:10:56;5.30;99.90
24436;DHT22;12616;52.470;13.436;2023-12-20T15:13:24;5.30;99.90
24436;DHT22;12616;52.470;13.436;2023-12-20T15:15:51;5.20;99.90
24436;DHT22;12616;52.470;13.436;2023-12-20T15:18:17;5.20;99.90
24436;DHT22;12616;52.470;13.436;2023-12-20T15:20:44;5.20;99.90
24436;DHT22;12616;52.470;13.436;2023-12-20T15:23:13;5.20;99.90
24436;DHT22;12616;52.470;13.436;2023-12-20T15:25:40;5.20;99.90
24436;DHT22;12616;52.470;13.436;2023-12-20T15:28:07;5.20;99.90
24436;DHT22;12616;52.470;13.436;2023-12-20T15:30:35;5.20;99.90
24436;DHT22;12616;52.470;13.436;2023-12-20T15:33:02;5.30;99.90
24436;DHT22;12616;52.470;13.436;2023-12-20T15:35:29;5.20;99.90
24436;DHT22;12616;52.470;13.436;2023-12-20T15:37:57;5.20;99.90
24436;DHT22;12616;52.470;13.436;2023-12-20T15:40:25;5.10;99.90
24436;DHT22;12616;52.470;13.436;2023-12-20T15:42:54;5.10;99.90